sensor_id;sensor_type;location;lat;lon;timestamp;pressure;altitude;pressure_sealevel;temperature;humidity
13767;BME280;47980;48.794;9.176;2024-02-16T00:01:09;98089.25;;;11.03;90.56
13767;BME280;47980;48.794;9.176;2024-02-16T00:03:40;98082.44;;;11.14;90.16
13767;BME280;47980;48.794;9.176;2024-02-16T00:06:12;98082.56;;;11.18;89.21
13767;BME280;47980;48.794;9.176;2024-02-16T00:08:43;98085.97;;;11.18;89.20
13767;BME280;47980;48.794;9.176;2024-02-16T00:11:16;98077.16;;;11.26;87.50
13767;BME280;47980;48.794;9.176;2024-02-16T00:13:48;98082.13;;;11.28;86.60
13767;BME280;47980;48.794;9.176;2024-02-16T00:16:19;98085.31;;;11.21;88.66
13767;BME280;47980;48.794;9.176;2024-02-16T00:18:51;98077.56;;;11.16;88.90
13767;BME280;47980;48.794;9.176;2024-02-16T00:21:23;98079.47;;;11.16;89.17
13767;BME280;47980;48.794;9.176;2024-02-16T00:23:54;98081.22;;;11.12;88.38
13767;BME280;47980;48.794;9.176;2024-02-16T00:26:27;98077.56;;;11.16;89.10
13767;BME280;47980;48.794;9.176;2024-02-16T00:28:59;98070.84;;;11.19;86.80
13767;BME280;47980;48.794;9.176;2024-02-16T00:31:30;98075.94;;;11.24;87.65
13767;BME280;47980;48.794;9.176;2024-02-16T00:34:02;98072.03;;;11.21;86.36
13767;BME280;47980;48.794;9.176;2024-02-16T00:36:33;98069.63;;;11.16;86.54
13767;BME280;47980;48.794;9.176;2024-02-16T00:39:05;98069.38;;;11.09;87.71
13767;BME280;47980;48.794;9.176;2024-02-16T00:41:37;98070.91;;;11.10;89.89
13767;BME280;47980;48.794;9.176;2024-02-16T00:44:09;98076.75;;;11.03;89.13
13767;BME280;47980;48.794;9.176;2024-02-16T00:46:40;98074.78;;;11.00;88.41
13767;BME280;47980;48.794;9.176;2024-02-16T00:49:12;98074.66;;;10.97;90.14
13767;BME280;47980;48.794;9.176;2024-02-16T00:51:43;98065.47;;;10.94;90.08
13767;BME280;47980;48.794;9.176;2024-02-16T00:54:15;98059.50;;;10.97;89.37
13767;BME280;47980;48.794;9.176;2024-02-16T00:56:48;98071.03;;;11.01;88.54
13767;BME280;47980;48.794;9.176;2024-02-16T00:59:19;98064.97;;;11.13;88.83
13767;BME280;47980;48.794;9.176;2024-02-16T01:01:51;98066.91;;;11.62;83.01
13767;BME280;47980;48.794;9.176;2024-02-16T01:04:22;98073.97;;;11.33;84.14
13767;BME280;47980;48.794;9.176;2024-02-16T01:06:54;98071.28;;;11.21;85.00
13767;BME280;47980;48.794;9.176;2024-02-16T01:09:26;98071.97;;;11.30;83.61
13767;BME280;47980;48.794;9.176;2024-02-16T01:11:59;98070.22;;;11.34;84.19
13767;BME280;47980;48.794;9.176;2024-02-16T01:14:30;98081.59;;;11.35;83.88
13767;BME280;47980;48.794;9.176;2024-02-16T01:17:02;98081.25;;;11.24;84.72
13767;BME280;47980;48.794;9.176;2024-02-16T01:19:34;98081.94;;;11.33;83.25
13767;BME280;47980;48.794;9.176;2024-02-16T01:22:04;98076.03;;;11.15;86.49
13767;BME280;47980;48.794;9.176;2024-02-16T01:24:35;98070.38;;;11.17;87.18
13767;BME280;47980;48.794;9.176;2024-02-16T01:27:08;98075.25;;;11.15;86.50
13767;BME280;47980;48.794;9.176;2024-02-16T01:29:41;98075.16;;;11.11;86.38
13767;BME280;47980;48.794;9.176;2024-02-16T01:32:13;98074.44;;;11.02;87.75
13767;BME280;47980;48.794;9.176;2024-02-16T01:34:44;98067.72;;;11.04;87.98
13767;BME280;47980;48.794;9.176;2024-02-16T01:37:17;98064.84;;;11.09;87.20
13767;BME280;47980;48.794;9.176;2024-02-16T01:39:48;98064.84;;;11.09;86.99
13767;BME280;47980;48.794;9.176;2024-02-16T01:42:21;98072.16;;;11.13;86.49
13767;BME280;47980;48.794;9.176;2024-02-16T01:44:53;98063.72;;;11.11;86.53
13767;BME280;47980;48.794;9.176;2024-02-16T01:47:24;98063.94;;;11.05;87.48
13767;BME280;47980;48.794;9.176;2024-02-16T01:49:56;98061.75;;;11.07;87.56
13767;BME280;47980;48.794;9.176;2024-02-16T01:52:28;98063.53;;;11.16;86.87
13767;BME280;47980;48.794;9.176;2024-02-16T01:55:01;98058.75;;;11.09;87.91
13767;BME280;47980;48.794;9.176;2024-02-16T01:57:34;98062.53;;;11.08;86.97
13767;BME280;47980;48.794;9.176;2024-02-16T02:00:06;98057.75;;;11.14;88.36
13767;BME280;47980;48.794;9.176;2024-02-16T02:02:38;98059.75;;;11.17;87.22
13767;BME280;47980;48.794;9.176;2024-02-16T02:05:10;98052.69;;;11.21;86.87
13767;BME280;47980;48.794;9.176;2024-02-16T02:07:41;98050.50;;;11.23;86.16
13767;BME280;47980;48.794;9.176;2024-02-16T02:10:14;98052.63;;;11.42;86.91
13767;BME280;47980;48.794;9.176;2024-02-16T02:12:47;98048.84;;;11.43;84.15
13767;BME280;47980;48.794;9.176;2024-02-16T02:15:18;98056.03;;;11.30;90.24
13767;BME280;47980;48.794;9.176;2024-02-16T02:17:49;98048.16;;;11.21;90.64
13767;BME280;47980;48.794;9.176;2024-02-16T02:20:22;98058.00;;;11.21;91.30
13767;BME280;47980;48.794;9.176;2024-02-16T02:22:54;98045.41;;;11.30;90.60
13767;BME280;47980;48.794;9.176;2024-02-16T02:25:26;98040.66;;;11.36;89.32
13767;BME280;47980;48.794;9.176;2024-02-16T02:27:59;98033.50;;;11.85;83.68
13767;BME280;47980;48.794;9.176;2024-02-16T02:30:32;98037.78;;;11.53;85.19
13767;BME280;47980;48.794;9.176;2024-02-16T02:33:04;98039.88;;;11.35;89.99
13767;BME280;47980;48.794;9.176;2024-02-16T02:35:35;98040.84;;;11.18;92.49
13767;BME280;47980;48.794;9.176;2024-02-16T02:38:08;98036.00;;;11.20;91.05
13767;BME280;47980;48.794;9.176;2024-02-16T02:40:40;98035.25;;;11.44;86.82
13767;BME280;47980;48.794;9.176;2024-02-16T02:43:11;98032.25;;;11.33;87.20
13767;BME280;47980;48.794;9.176;2024-02-16T02:45:43;98024.16;;;11.30;88.49
13767;BME280;47980;48.794;9.176;2024-02-16T02:48:15;98020.41;;;11.31;85.38
13767;BME280;47980;48.794;9.176;2024-02-16T02:50:46;98033.22;;;11.29;89.85
13767;BME280;47980;48.794;9.176;2024-02-16T02:53:19;98023.59;;;11.24;89.98
13767;BME280;47980;48.794;9.176;2024-02-16T02:55:50;98031.63;;;11.03;86.84
13767;BME280;47980;48.794;9.176;2024-02-16T02:58:22;98024.34;;;11.00;86.76
13767;BME280;47980;48.794;9.176;2024-02-16T03:00:53;98021.72;;;11.13;85.76
13767;BME280;47980;48.794;9.176;2024-02-16T03:03:25;98020.47;;;10.98;87.65
13767;BME280;47980;48.794;9.176;2024-02-16T03:05:56;98011.72;;;10.97;89.36
13767;BME280;47980;48.794;9.176;2024-02-16T03:08:29;98014.28;;;11.06;90.23
13767;BME280;47980;48.794;9.176;2024-02-16T03:11:01;98009.31;;;11.04;90.17
13767;BME280;47980;48.794;9.176;2024-02-16T03:13:34;98004.31;;;11.03;92.27
13767;BME280;47980;48.794;9.176;2024-02-16T03:16:06;98009.19;;;11.01;93.18
13767;BME280;47980;48.794;9.176;2024-02-16T03:18:38;98005.19;;;10.95;92.95
13767;BME280;47980;48.794;9.176;2024-02-16T03:21:13;98004.72;;;10.93;92.60
13767;BME280;47980;48.794;9.176;2024-02-16T03:23:47;98006.31;;;10.94;93.45
13767;BME280;47980;48.794;9.176;2024-02-16T03:26:20;98015.03;;;10.94;93.82
13767;BME280;47980;48.794;9.176;2024-02-16T03:28:51;98018.22;;;10.88;95.10
13767;BME280;47980;48.794;9.176;2024-02-16T03:31:23;98012.69;;;10.93;95.79
13767;BME280;47980;48.794;9.176;2024-02-16T03:33:55;98021.66;;;10.88;96.29
13767;BME280;47980;48.794;9.176;2024-02-16T03:36:26;98023.28;;;10.80;95.38
13767;BME280;47980;48.794;9.176;2024-02-16T03:38:59;98020.50;;;10.77;94.01
13767;BME280;47980;48.794;9.176;2024-02-16T03:41:31;98021.88;;;10.83;92.97
13767;BME280;47980;48.794;9.176;2024-02-16T03:44:02;98022.75;;;10.87;94.32
13767;BME280;47980;48.794;9.176;2024-02-16T03:46:34;98019.00;;;10.88;94.39
13767;BME280;47980;48.794;9.176;2024-02-16T03:49:07;98018.56;;;10.86;91.77
13767;BME280;47980;48.794;9.176;2024-02-16T03:51:38;98019.41;;;10.78;92.53
13767;BME280;47980;48.794;9.176;2024-02-16T03:54:11;98023.16;;;10.77;92.21
13767;BME280;47980;48.794;9.176;2024-02-16T03:56:43;98028.59;;;11.26;88.99
13767;BME280;47980;48.794;9.176;2024-02-16T03:59:15;98027.59;;;11.30;86.02
13767;BME280;47980;48.794;9.176;2024-02-16T04:01:46;98035.34;;;11.23;87.52
13767;BME280;47980;48.794;9.176;2024-02-16T04:04:18;98034.75;;;11.05;86.67
13767;BME280;47980;48.794;9.176;2024-02-16T04:06:49;98030.84;;;10.91;89.31
13767;BME280;47980;48.794;9.176;2024-02-16T04:09:22;98038.69;;;10.87;89.10
13767;BME280;47980;48.794;9.176;2024-02-16T04:11:55;98036.34;;;11.19;86.45
13767;BME280;47980;48.794;9.176;2024-02-16T04:14:26;98038.09;;;11.27;84.68
13767;BME280;47980;48.794;9.176;2024-02-16T04:16:58;98036.22;;;11.27;84.04
13767;BME280;47980;48.794;9.176;2024-02-16T04:19:29;98036.44;;;11.35;84.33
13767;BME280;47980;48.794;9.176;2024-02-16T04:22:01;98032.34;;;11.25;83.56
13767;BME280;47980;48.794;9.176;2024-02-16T04:24:35;98037.34;;;11.39;84.50
13767;BME280;47980;48.794;9.176;2024-02-16T04:27:06;98047.41;;;11.45;83.76
13767;BME280;47980;48.794;9.176;2024-02-16T04:29:38;98042.13;;;11.00;86.29
13767;BME280;47980;48.794;9.176;2024-02-16T04:32:09;98041.25;;;10.96;87.88
13767;BME280;47980;48.794;9.176;2024-02-16T04:34:41;98040.03;;;10.93;86.71
13767;BME280;47980;48.794;9.176;2024-02-16T04:37:12;98044.91;;;11.03;88.20
13767;BME280;47980;48.794;9.176;2024-02-16T04:39:45;98050.69;;;11.05;88.11
13767;BME280;47980;48.794;9.176;2024-02-16T04:42:17;98050.22;;;11.03;85.86
13767;BME280;47980;48.794;9.176;2024-02-16T04:44:49;98046.66;;;10.99;87.22
13767;BME280;47980;48.794;9.176;2024-02-16T04:47:20;98050.91;;;11.00;86.10
13767;BME280;47980;48.794;9.176;2024-02-16T04:49:52;98050.91;;;11.25;85.44
13767;BME280;47980;48.794;9.176;2024-02-16T04:52:23;98052.03;;;11.24;85.26
13767;BME280;47980;48.794;9.176;2024-02-16T04:54:56;98050.56;;;11.14;86.44
13767;BME280;47980;48.794;9.176;2024-02-16T04:57:28;98055.22;;;11.17;84.24
13767;BME280;47980;48.794;9.176;2024-02-16T04:59:59;98051.69;;;11.13;85.59
13767;BME280;47980;48.794;9.176;2024-02-16T05:02:31;98050.78;;;11.09;86.88
13767;BME280;47980;48.794;9.176;2024-02-16T05:05:02;98050.03;;;11.21;85.43
13767;BME280;47980;48.794;9.176;2024-02-16T05:07:34;98048.72;;;11.27;84.66
13767;BME280;47980;48.794;9.176;2024-02-16T05:10:09;98054.69;;;11.12;84.80
13767;BME280;47980;48.794;9.176;2024-02-16T05:12:41;98053.56;;;11.00;85.34
13767;BME280;47980;48.794;9.176;2024-02-16T05:15:13;98056.16;;;10.88;86.26
13767;BME280;47980;48.794;9.176;2024-02-16T05:17:47;98050.66;;;10.93;85.96
13767;BME280;47980;48.794;9.176;2024-02-16T05:20:19;98060.81;;;10.91;86.63
13767;BME280;47980;48.794;9.176;2024-02-16T05:22:50;98060.34;;;10.89;85.75
13767;BME280;47980;48.794;9.176;2024-02-16T05:25:23;98061.81;;;10.99;86.70
13767;BME280;47980;48.794;9.176;2024-02-16T05:27:55;98069.53;;;10.92;86.68
13767;BME280;47980;48.794;9.176;2024-02-16T05:30:26;98070.16;;;11.09;84.36
13767;BME280;47980;48.794;9.176;2024-02-16T05:32:58;98063.59;;;10.95;85.48
13767;BME280;47980;48.794;9.176;2024-02-16T05:35:30;98063.00;;;11.22;83.97
13767;BME280;47980;48.794;9.176;2024-02-16T05:38:04;98068.66;;;11.33;83.53
13767;BME280;47980;48.794;9.176;2024-02-16T05:40:42;98073.97;;;11.33;81.76
13767;BME280;47980;48.794;9.176;2024-02-16T05:43:23;98078.97;;;11.01;84.26
13767;BME280;47980;48.794;9.176;2024-02-16T05:45:55;98072.81;;;11.09;83.80
13767;BME280;47980;48.794;9.176;2024-02-16T05:48:26;98074.53;;;10.93;85.74
13767;BME280;47980;48.794;9.176;2024-02-16T05:51:00;98070.28;;;10.80;88.80
13767;BME280;47980;48.794;9.176;2024-02-16T05:53:32;98073.78;;;10.72;88.43
13767;BME280;47980;48.794;9.176;2024-02-16T05:56:06;98075.56;;;10.68;89.00
13767;BME280;47980;48.794;9.176;2024-02-16T05:58:38;98078.75;;;10.73;87.94
13767;BME280;47980;48.794;9.176;2024-02-16T06:01:09;98074.69;;;10.76;86.73
13767;BME280;47980;48.794;9.176;2024-02-16T06:03:42;98071.09;;;10.93;84.78
13767;BME280;47980;48.794;9.176;2024-02-16T06:06:14;98076.28;;;11.22;82.67
13767;BME280;47980;48.794;9.176;2024-02-16T06:08:46;98077.47;;;11.13;82.75
13767;BME280;47980;48.794;9.176;2024-02-16T06:11:18;98085.44;;;11.25;82.49
13767;BME280;47980;48.794;9.176;2024-02-16T06:13:50;98089.19;;;11.12;81.73
13767;BME280;47980;48.794;9.176;2024-02-16T06:16:21;98084.00;;;11.15;82.13
13767;BME280;47980;48.794;9.176;2024-02-16T06:18:53;98092.75;;;11.28;82.31
13767;BME280;47980;48.794;9.176;2024-02-16T06:21:25;98094.03;;;11.55;80.08
13767;BME280;47980;48.794;9.176;2024-02-16T06:23:56;98098.88;;;11.53;79.18
13767;BME280;47980;48.794;9.176;2024-02-16T06:26:29;98103.31;;;11.49;78.17
13767;BME280;47980;48.794;9.176;2024-02-16T06:29:00;98102.47;;;11.12;81.65
13767;BME280;47980;48.794;9.176;2024-02-16T06:31:32;98105.75;;;11.54;78.98
13767;BME280;47980;48.794;9.176;2024-02-16T06:34:03;98105.63;;;11.38;77.98
13767;BME280;47980;48.794;9.176;2024-02-16T06:36:35;98112.63;;;11.09;79.97
13767;BME280;47980;48.794;9.176;2024-02-16T06:39:06;98112.88;;;10.63;85.53
13767;BME280;47980;48.794;9.176;2024-02-16T06:41:39;98128.94;;;10.99;83.49
13767;BME280;47980;48.794;9.176;2024-02-16T06:44:11;98130.41;;;11.30;80.81
13767;BME280;47980;48.794;9.176;2024-02-16T06:46:43;98125.91;;;11.09;80.91
13767;BME280;47980;48.794;9.176;2024-02-16T06:49:14;98122.75;;;10.95;81.19
13767;BME280;47980;48.794;9.176;2024-02-16T06:51:46;98128.31;;;10.81;83.45
13767;BME280;47980;48.794;9.176;2024-02-16T06:54:18;98131.53;;;10.75;85.55
13767;BME280;47980;48.794;9.176;2024-02-16T06:56:50;98139.00;;;10.73;84.97
13767;BME280;47980;48.794;9.176;2024-02-16T06:59:22;98141.03;;;10.76;84.58
13767;BME280;47980;48.794;9.176;2024-02-16T07:01:53;98150.78;;;10.84;84.79
13767;BME280;47980;48.794;9.176;2024-02-16T07:04:25;98143.53;;;10.93;82.54
13767;BME280;47980;48.794;9.176;2024-02-16T07:06:56;98151.16;;;10.95;82.46
13767;BME280;47980;48.794;9.176;2024-02-16T07:09:28;98152.72;;;10.96;82.78
13767;BME280;47980;48.794;9.176;2024-02-16T07:12:00;98164.44;;;11.16;82.23
13767;BME280;47980;48.794;9.176;2024-02-16T07:14:33;98159.88;;;11.16;79.98
13767;BME280;47980;48.794;9.176;2024-02-16T07:17:04;98161.63;;;11.33;80.36
13767;BME280;47980;48.794;9.176;2024-02-16T07:19:39;98158.22;;;11.45;77.68
13767;BME280;47980;48.794;9.176;2024-02-16T07:22:11;98163.53;;;11.57;78.37
13767;BME280;47980;48.794;9.176;2024-02-16T07:24:42;98166.13;;;11.78;76.59
13767;BME280;47980;48.794;9.176;2024-02-16T07:27:15;98160.84;;;11.90;75.93
13767;BME280;47980;48.794;9.176;2024-02-16T07:29:47;98168.06;;;12.02;74.74
13767;BME280;47980;48.794;9.176;2024-02-16T07:32:19;98165.50;;;11.93;74.74
13767;BME280;47980;48.794;9.176;2024-02-16T07:34:50;98166.13;;;11.66;76.19
13767;BME280;47980;48.794;9.176;2024-02-16T07:37:22;98170.09;;;11.60;76.50
13767;BME280;47980;48.794;9.176;2024-02-16T07:39:53;98172.38;;;11.49;78.11
13767;BME280;47980;48.794;9.176;2024-02-16T07:42:26;98163.59;;;11.36;81.67
13767;BME280;47980;48.794;9.176;2024-02-16T07:44:57;98167.13;;;11.28;81.97
13767;BME280;47980;48.794;9.176;2024-02-16T07:47:29;98170.94;;;11.18;83.65
13767;BME280;47980;48.794;9.176;2024-02-16T07:50:00;98169.28;;;11.14;85.18
13767;BME280;47980;48.794;9.176;2024-02-16T07:52:32;98171.63;;;11.15;84.72
13767;BME280;47980;48.794;9.176;2024-02-16T07:55:05;98171.38;;;11.08;84.70
13767;BME280;47980;48.794;9.176;2024-02-16T07:57:38;98175.44;;;11.05;81.18
13767;BME280;47980;48.794;9.176;2024-02-16T08:00:10;98174.16;;;11.45;79.87
13767;BME280;47980;48.794;9.176;2024-02-16T08:02:42;98176.16;;;11.60;77.91
13767;BME280;47980;48.794;9.176;2024-02-16T08:05:14;98178.97;;;11.76;76.80
13767;BME280;47980;48.794;9.176;2024-02-16T08:07:49;98178.41;;;11.70;78.08
13767;BME280;47980;48.794;9.176;2024-02-16T08:10:20;98178.44;;;11.37;79.72
13767;BME280;47980;48.794;9.176;2024-02-16T08:12:54;98175.59;;;12.24;76.29
13767;BME280;47980;48.794;9.176;2024-02-16T08:15:25;98186.53;;;12.60;74.03
13767;BME280;47980;48.794;9.176;2024-02-16T08:17:57;98179.56;;;12.31;73.79
13767;BME280;47980;48.794;9.176;2024-02-16T08:20:28;98187.22;;;12.20;75.09
13767;BME280;47980;48.794;9.176;2024-02-16T08:22:59;98189.66;;;12.37;74.16
13767;BME280;47980;48.794;9.176;2024-02-16T08:25:31;98181.69;;;12.49;73.32
13767;BME280;47980;48.794;9.176;2024-02-16T08:28:05;98175.63;;;12.77;71.89
13767;BME280;47980;48.794;9.176;2024-02-16T08:30:37;98185.06;;;13.15;70.76
13767;BME280;47980;48.794;9.176;2024-02-16T08:33:11;98189.38;;;13.19;71.17
13767;BME280;47980;48.794;9.176;2024-02-16T08:35:43;98187.59;;;13.23;69.09
13767;BME280;47980;48.794;9.176;2024-02-16T08:38:15;98184.22;;;13.39;68.61
13767;BME280;47980;48.794;9.176;2024-02-16T08:40:46;98189.59;;;13.70;68.90
13767;BME280;47980;48.794;9.176;2024-02-16T08:43:23;98187.72;;;14.03;68.73
13767;BME280;47980;48.794;9.176;2024-02-16T08:45:54;98192.06;;;14.42;66.35
13767;BME280;47980;48.794;9.176;2024-02-16T08:48:26;98193.13;;;14.22;66.18
13767;BME280;47980;48.794;9.176;2024-02-16T08:50:57;98193.31;;;13.82;66.73
13767;BME280;47980;48.794;9.176;2024-02-16T08:53:29;98193.66;;;14.12;65.78
13767;BME280;47980;48.794;9.176;2024-02-16T08:56:00;98194.16;;;14.17;64.69
13767;BME280;47980;48.794;9.176;2024-02-16T08:58:33;98194.16;;;13.86;66.74
13767;BME280;47980;48.794;9.176;2024-02-16T09:01:05;98194.34;;;13.77;67.50
13767;BME280;47980;48.794;9.176;2024-02-16T09:03:36;98196.81;;;14.49;64.96
13767;BME280;47980;48.794;9.176;2024-02-16T09:06:10;98193.66;;;14.79;64.08
13767;BME280;47980;48.794;9.176;2024-02-16T09:08:43;98203.00;;;14.88;62.45
13767;BME280;47980;48.794;9.176;2024-02-16T09:11:14;98197.03;;;14.76;63.01
13767;BME280;47980;48.794;9.176;2024-02-16T09:13:49;98195.56;;;15.17;62.51
13767;BME280;47980;48.794;9.176;2024-02-16T09:16:21;98198.09;;;15.29;62.38
13767;BME280;47980;48.794;9.176;2024-02-16T09:18:52;98192.44;;;15.54;61.54
13767;BME280;47980;48.794;9.176;2024-02-16T09:21:24;98195.59;;;16.02;60.26
13767;BME280;47980;48.794;9.176;2024-02-16T09:23:57;98204.53;;;15.67;60.17
13767;BME280;47980;48.794;9.176;2024-02-16T09:26:31;98192.72;;;15.68;60.50
13767;BME280;47980;48.794;9.176;2024-02-16T09:29:05;98199.53;;;15.46;61.15
13767;BME280;47980;48.794;9.176;2024-02-16T09:31:36;98200.63;;;15.41;61.89
13767;BME280;47980;48.794;9.176;2024-02-16T09:34:10;98210.09;;;15.58;61.01
13767;BME280;47980;48.794;9.176;2024-02-16T09:36:42;98210.16;;;15.62;60.74
13767;BME280;47980;48.794;9.176;2024-02-16T09:39:14;98211.69;;;16.05;59.32
13767;BME280;47980;48.794;9.176;2024-02-16T09:41:49;98214.84;;;15.88;59.65
13767;BME280;47980;48.794;9.176;2024-02-16T09:44:23;98216.38;;;15.89;59.22
13767;BME280;47980;48.794;9.176;2024-02-16T09:46:56;98222.94;;;16.41;60.01
13767;BME280;47980;48.794;9.176;2024-02-16T09:49:31;98225.69;;;16.45;58.08
13767;BME280;47980;48.794;9.176;2024-02-16T09:52:03;98229.69;;;17.11;56.45
13767;BME280;47980;48.794;9.176;2024-02-16T09:54:35;98234.81;;;17.23;56.77
13767;BME280;47980;48.794;9.176;2024-02-16T09:57:07;98234.03;;;17.23;56.25
13767;BME280;47980;48.794;9.176;2024-02-16T09:59:40;98232.09;;;17.20;55.73
13767;BME280;47980;48.794;9.176;2024-02-16T10:02:11;98236.19;;;17.44;54.30
13767;BME280;47980;48.794;9.176;2024-02-16T10:04:42;98241.16;;;17.42;54.81
13767;BME280;47980;48.794;9.176;2024-02-16T10:07:14;98246.25;;;16.90;56.25
13767;BME280;47980;48.794;9.176;2024-02-16T10:09:46;98244.03;;;17.26;56.31
13767;BME280;47980;48.794;9.176;2024-02-16T10:12:18;98243.03;;;17.75;54.66
13767;BME280;47980;48.794;9.176;2024-02-16T10:14:57;98251.56;;;17.47;55.14
13767;BME280;47980;48.794;9.176;2024-02-16T10:17:30;98252.69;;;17.12;56.03
13767;BME280;47980;48.794;9.176;2024-02-16T10:20:02;98255.97;;;17.28;55.78
13767;BME280;47980;48.794;9.176;2024-02-16T10:22:36;98253.91;;;17.52;56.19
13767;BME280;47980;48.794;9.176;2024-02-16T10:25:08;98258.44;;;17.44;55.84
13767;BME280;47980;48.794;9.176;2024-02-16T10:27:46;98267.06;;;17.30;56.10
13767;BME280;47980;48.794;9.176;2024-02-16T10:30:19;98262.31;;;17.47;55.65
13767;BME280;47980;48.794;9.176;2024-02-16T10:32:51;98263.53;;;17.56;55.54
13767;BME280;47980;48.794;9.176;2024-02-16T10:35:24;98270.69;;;17.45;55.38
13767;BME280;47980;48.794;9.176;2024-02-16T10:37:56;98273.41;;;17.49;55.51
13767;BME280;47980;48.794;9.176;2024-02-16T10:40:28;98270.09;;;17.59;55.69
13767;BME280;47980;48.794;9.176;2024-02-16T10:43:03;98278.47;;;17.88;54.69
13767;BME280;47980;48.794;9.176;2024-02-16T10:45:37;98279.16;;;18.22;54.52
13767;BME280;47980;48.794;9.176;2024-02-16T10:48:10;98273.28;;;18.06;54.26
13767;BME280;47980;48.794;9.176;2024-02-16T10:50:42;98278.94;;;17.97;53.44
13767;BME280;47980;48.794;9.176;2024-02-16T10:53:19;98273.78;;;18.22;53.18
13767;BME280;47980;48.794;9.176;2024-02-16T10:55:53;98279.59;;;18.24;53.50
13767;BME280;47980;48.794;9.176;2024-02-16T10:58:24;98278.63;;;18.02;53.69
13767;BME280;47980;48.794;9.176;2024-02-16T11:00:57;98282.34;;;18.35;53.45
13767;BME280;47980;48.794;9.176;2024-02-16T11:03:31;98273.59;;;18.41;53.32
13767;BME280;47980;48.794;9.176;2024-02-16T11:06:14;98277.69;;;18.76;51.71
13767;BME280;47980;48.794;9.176;2024-02-16T11:08:48;98282.47;;;19.00;51.68
13767;BME280;47980;48.794;9.176;2024-02-16T11:11:22;98281.16;;;18.80;51.31
13767;BME280;47980;48.794;9.176;2024-02-16T11:13:54;98279.66;;;18.35;52.61
13767;BME280;47980;48.794;9.176;2024-02-16T11:16:27;98275.22;;;18.53;52.68
13767;BME280;47980;48.794;9.176;2024-02-16T11:18:59;98276.50;;;18.73;53.31
13767;BME280;47980;48.794;9.176;2024-02-16T11:21:34;98270.63;;;18.09;52.73
13767;BME280;47980;48.794;9.176;2024-02-16T11:24:06;98275.38;;;18.26;53.40
13767;BME280;47980;48.794;9.176;2024-02-16T11:26:42;98270.06;;;18.34;51.78
13767;BME280;47980;48.794;9.176;2024-02-16T11:29:13;98272.50;;;18.05;53.35
13767;BME280;47980;48.794;9.176;2024-02-16T11:31:46;98264.78;;;18.48;52.88
13767;BME280;47980;48.794;9.176;2024-02-16T11:34:22;98259.72;;;18.36;53.03
13767;BME280;47980;48.794;9.176;2024-02-16T11:36:54;98268.84;;;17.83;53.24
13767;BME280;47980;48.794;9.176;2024-02-16T11:39:27;98267.38;;;18.30;52.30
13767;BME280;47980;48.794;9.176;2024-02-16T11:42:00;98271.00;;;18.11;54.18
13767;BME280;47980;48.794;9.176;2024-02-16T11:44:35;98265.66;;;18.11;54.99
13767;BME280;47980;48.794;9.176;2024-02-16T11:47:08;98260.97;;;18.04;53.22
13767;BME280;47980;48.794;9.176;2024-02-16T11:49:43;98265.25;;;18.09;54.36
13767;BME280;47980;48.794;9.176;2024-02-16T11:52:14;98270.06;;;18.30;52.72
13767;BME280;47980;48.794;9.176;2024-02-16T11:54:46;98273.13;;;18.32;52.96
13767;BME280;47980;48.794;9.176;2024-02-16T11:57:17;98272.38;;;18.83;51.30
13767;BME280;47980;48.794;9.176;2024-02-16T11:59:49;98269.28;;;18.78;51.51
13767;BME280;47980;48.794;9.176;2024-02-16T12:02:24;98263.22;;;18.98;49.88
13767;BME280;47980;48.794;9.176;2024-02-16T12:04:59;98261.94;;;18.74;50.85
13767;BME280;47980;48.794;9.176;2024-02-16T12:07:31;98274.28;;;18.83;50.99
13767;BME280;47980;48.794;9.176;2024-02-16T12:10:06;98275.06;;;18.87;50.70
13767;BME280;47980;48.794;9.176;2024-02-16T12:12:38;98272.84;;;18.96;51.00
13767;BME280;47980;48.794;9.176;2024-02-16T12:15:10;98266.19;;;18.75;50.54
13767;BME280;47980;48.794;9.176;2024-02-16T12:17:44;98269.81;;;19.08;50.06
13767;BME280;47980;48.794;9.176;2024-02-16T12:20:16;98271.00;;;19.11;50.38
13767;BME280;47980;48.794;9.176;2024-02-16T12:22:48;98269.88;;;19.22;50.99
13767;BME280;47980;48.794;9.176;2024-02-16T12:25:20;98278.59;;;18.98;50.79
13767;BME280;47980;48.794;9.176;2024-02-16T12:27:51;98271.56;;;18.79;51.73
13767;BME280;47980;48.794;9.176;2024-02-16T12:30:23;98274.16;;;18.68;54.12
13767;BME280;47980;48.794;9.176;2024-02-16T12:32:56;98283.81;;;18.73;51.19
13767;BME280;47980;48.794;9.176;2024-02-16T12:35:28;98275.41;;;18.78;51.98
13767;BME280;47980;48.794;9.176;2024-02-16T12:37:59;98277.09;;;18.49;51.93
13767;BME280;47980;48.794;9.176;2024-02-16T12:40:31;98279.28;;;18.88;51.41
13767;BME280;47980;48.794;9.176;2024-02-16T12:43:03;98280.16;;;19.03;50.66
13767;BME280;47980;48.794;9.176;2024-02-16T12:45:35;98280.91;;;18.96;50.58
13767;BME280;47980;48.794;9.176;2024-02-16T12:48:08;98272.88;;;18.51;52.74
13767;BME280;47980;48.794;9.176;2024-02-16T12:50:40;98281.16;;;18.76;51.64
13767;BME280;47980;48.794;9.176;2024-02-16T12:53:12;98282.59;;;18.63;52.78
13767;BME280;47980;48.794;9.176;2024-02-16T12:55:43;98279.50;;;18.65;52.06
13767;BME280;47980;48.794;9.176;2024-02-16T12:58:15;98283.25;;;18.49;53.22
13767;BME280;47980;48.794;9.176;2024-02-16T13:00:46;98285.59;;;18.58;53.47
13767;BME280;47980;48.794;9.176;2024-02-16T13:03:19;98287.91;;;18.56;52.73
13767;BME280;47980;48.794;9.176;2024-02-16T13:05:50;98288.72;;;18.64;54.83
13767;BME280;47980;48.794;9.176;2024-02-16T13:08:22;98289.56;;;18.71;53.35
13767;BME280;47980;48.794;9.176;2024-02-16T13:10:53;98280.28;;;18.17;54.90
13767;BME280;47980;48.794;9.176;2024-02-16T13:13:25;98278.28;;;18.55;54.22
13767;BME280;47980;48.794;9.176;2024-02-16T13:15:56;98284.75;;;18.47;54.75
13767;BME280;47980;48.794;9.176;2024-02-16T13:18:30;98276.81;;;18.65;54.85
13767;BME280;47980;48.794;9.176;2024-02-16T13:21:02;98280.34;;;18.72;54.46
13767;BME280;47980;48.794;9.176;2024-02-16T13:23:34;98280.41;;;18.80;54.24
13767;BME280;47980;48.794;9.176;2024-02-16T13:26:05;98281.69;;;19.00;54.58